sensor_id;sensor_type;location;lat;lon;timestamp;pressure;altitude;pressure_sealevel;temperature;humidity
56807;BME280;42687;42.524;12.052;2022-08-20T00:01:43;96457.50;;;16.29;94.56
56807;BME280;42687;42.524;12.052;2022-08-20T00:04:10;96461.94;;;16.28;96.64
56807;BME280;42687;42.524;12.052;2022-08-20T00:06:35;96463.78;;;16.28;96.83
56807;BME280;42687;42.524;12.052;2022-08-20T00:09:01;96448.00;;;16.26;95.28
56807;BME280;42687;42.524;12.052;2022-08-20T00:11:27;96463.78;;;16.28;94.39
56807;BME280;42687;42.524;12.052;2022-08-20T00:13:54;96419.63;;;15.96;95.03
56807;BME280;42687;42.524;12.052;2022-08-20T00:16:20;96400.03;;;15.87;96.80
56807;BME280;42687;42.524;12.052;2022-08-20T00:18:46;96465.00;;;16.24;98.45
56807;BME280;42687;42.524;12.052;2022-08-20T00:21:14;96458.97;;;16.22;98.71
56807;BME280;42687;42.524;12.052;2022-08-20T00:23:41;96464.16;;;16.23;94.56
56807;BME280;42687;42.524;12.052;2022-08-20T00:26:08;96461.81;;;16.30;93.31
56807;BME280;42687;42.524;12.052;2022-08-20T00:28:34;96464.09;;;16.34;94.19
56807;BME280;42687;42.524;12.052;2022-08-20T00:31:01;96462.97;;;16.37;94.02
56807;BME280;42687;42.524;12.052;2022-08-20T00:33:27;96454.88;;;16.39;95.46
56807;BME280;42687;42.524;12.052;2022-08-20T00:35:53;96460.03;;;16.40;94.99
56807;BME280;42687;42.524;12.052;2022-08-20T00:38:31;96458.13;;;16.42;93.01
56807;BME280;42687;42.524;12.052;2022-08-20T00:40:57;96424.09;;;16.26;88.06
56807;BME280;42687;42.524;12.052;2022-08-20T00:43:41;96461.25;;;16.57;91.51
56807;BME280;42687;42.524;12.052;2022-08-20T00:46:09;96462.66;;;16.61;92.36
56807;BME280;42687;42.524;12.052;2022-08-20T00:48:36;96463.91;;;16.67;90.96
56807;BME280;42687;42.524;12.052;2022-08-20T00:51:17;96465.75;;;16.76;90.28
56807;BME280;42687;42.524;12.052;2022-08-20T00:53:45;96463.97;;;16.87;89.77
56807;BME280;42687;42.524;12.052;2022-08-20T00:56:12;96464.16;;;16.95;90.42
56807;BME280;42687;42.524;12.052;2022-08-20T00:58:37;96469.66;;;17.03;90.93
56807;BME280;42687;42.524;12.052;2022-08-20T01:01:04;96468.25;;;17.09;91.37
56807;BME280;42687;42.524;12.052;2022-08-20T01:03:30;96469.38;;;17.16;90.60
56807;BME280;42687;42.524;12.052;2022-08-20T01:05:57;96466.03;;;17.24;90.52
56807;BME280;42687;42.524;12.052;2022-08-20T01:08:23;96457.53;;;17.30;90.32
56807;BME280;42687;42.524;12.052;2022-08-20T01:10:51;96458.94;;;17.34;89.64
56807;BME280;42687;42.524;12.052;2022-08-20T01:13:21;96467.31;;;17.39;90.16
56807;BME280;42687;42.524;12.052;2022-08-20T01:15:48;96464.66;;;17.39;89.64
56807;BME280;42687;42.524;12.052;2022-08-20T01:18:17;96466.47;;;17.39;89.78
56807;BME280;42687;42.524;12.052;2022-08-20T01:20:54;96469.97;;;17.39;89.74
56807;BME280;42687;42.524;12.052;2022-08-20T01:23:27;96466.47;;;17.39;89.79
56807;BME280;42687;42.524;12.052;2022-08-20T01:28:27;96470.13;;;17.38;89.71
56807;BME280;42687;42.524;12.052;2022-08-20T01:30:53;96472.94;;;17.36;89.78
56807;BME280;42687;42.524;12.052;2022-08-20T01:33:20;96468.31;;;17.28;89.37
56807;BME280;42687;42.524;12.052;2022-08-20T01:35:46;96478.50;;;17.23;90.25
56807;BME280;42687;42.524;12.052;2022-08-20T01:38:12;96474.16;;;17.12;90.81
56807;BME280;42687;42.524;12.052;2022-08-20T01:43:06;96479.56;;;17.01;92.10
56807;BME280;42687;42.524;12.052;2022-08-20T01:45:33;96473.56;;;16.99;92.12
56807;BME280;42687;42.524;12.052;2022-08-20T01:48:00;96469.81;;;17.02;92.21
56807;BME280;42687;42.524;12.052;2022-08-20T01:50:26;96473.16;;;17.04;89.19
56807;BME280;42687;42.524;12.052;2022-08-20T01:52:58;96458.03;;;17.04;84.11
56807;BME280;42687;42.524;12.052;2022-08-20T01:55:29;96463.09;;;17.07;84.63
56807;BME280;42687;42.524;12.052;2022-08-20T01:57:55;96463.09;;;17.07;84.21
56807;BME280;42687;42.524;12.052;2022-08-20T02:00:21;96463.09;;;17.07;85.03
56807;BME280;42687;42.524;12.052;2022-08-20T02:02:48;96470.09;;;17.08;88.06
56807;BME280;42687;42.524;12.052;2022-08-20T02:05:14;96466.44;;;17.09;90.13
56807;BME280;42687;42.524;12.052;2022-08-20T02:07:39;96471.91;;;17.08;91.58
56807;BME280;42687;42.524;12.052;2022-08-20T02:10:06;96471.31;;;17.04;92.81
56807;BME280;42687;42.524;12.052;2022-08-20T02:12:32;96459.28;;;17.00;94.56
56807;BME280;42687;42.524;12.052;2022-08-20T02:14:57;96468.50;;;16.96;95.65
56807;BME280;42687;42.524;12.052;2022-08-20T02:17:23;96465.31;;;16.92;96.58
56807;BME280;42687;42.524;12.052;2022-08-20T02:19:50;96459.28;;;16.90;97.98
56807;BME280;42687;42.524;12.052;2022-08-20T02:24:46;96449.59;;;16.79;95.51
56807;BME280;42687;42.524;12.052;2022-08-20T02:27:11;96454.03;;;16.79;96.92
56807;BME280;42687;42.524;12.052;2022-08-20T02:29:38;96453.22;;;16.78;97.61
56807;BME280;42687;42.524;12.052;2022-08-20T02:32:03;96441.75;;;16.78;99.17
56807;BME280;42687;42.524;12.052;2022-08-20T02:34:30;96442.00;;;16.75;97.79
56807;BME280;42687;42.524;12.052;2022-08-20T02:36:59;96454.31;;;16.76;97.71
56807;BME280;42687;42.524;12.052;2022-08-20T02:39:24;96447.19;;;16.76;98.14
56807;BME280;42687;42.524;12.052;2022-08-20T02:41:51;96444.41;;;16.78;98.34
56807;BME280;42687;42.524;12.052;2022-08-20T02:44:16;96393.00;;;16.38;98.31
56807;BME280;42687;42.524;12.052;2022-08-20T02:46:44;96451.53;;;16.77;98.54
56807;BME280;42687;42.524;12.052;2022-08-20T02:49:10;96450.84;;;16.75;99.52
56807;BME280;42687;42.524;12.052;2022-08-20T02:51:35;96454.00;;;16.69;99.64
56807;BME280;42687;42.524;12.052;2022-08-20T02:54:01;96436.09;;;16.51;99.61
56807;BME280;42687;42.524;12.052;2022-08-20T02:56:27;96442.53;;;16.59;100.00
56807;BME280;42687;42.524;12.052;2022-08-20T02:58:55;96452.00;;;16.51;100.00
56807;BME280;42687;42.524;12.052;2022-08-20T03:01:21;96449.44;;;16.40;100.00
56807;BME280;42687;42.524;12.052;2022-08-20T03:03:46;96449.13;;;16.33;100.00
56807;BME280;42687;42.524;12.052;2022-08-20T03:06:12;96441.00;;;16.25;100.00
56807;BME280;42687;42.524;12.052;2022-08-20T03:08:37;96439.84;;;16.18;100.00
56807;BME280;42687;42.524;12.052;2022-08-20T03:11:04;96437.28;;;16.07;100.00
56807;BME280;42687;42.524;12.052;2022-08-20T03:13:30;96432.63;;;15.99;100.00
56807;BME280;42687;42.524;12.052;2022-08-20T03:15:57;96433.72;;;15.96;100.00
56807;BME280;42687;42.524;12.052;2022-08-20T03:18:23;96428.81;;;15.92;100.00
56807;BME280;42687;42.524;12.052;2022-08-20T03:20:50;96359.81;;;15.40;100.00
56807;BME280;42687;42.524;12.052;2022-08-20T03:23:16;96436.84;;;15.80;100.00
56807;BME280;42687;42.524;12.052;2022-08-20T03:25:42;96445.16;;;15.76;100.00
56807;BME280;42687;42.524;12.052;2022-08-20T03:28:08;96446.38;;;15.72;100.00
56807;BME280;42687;42.524;12.052;2022-08-20T03:30:34;96448.91;;;15.73;100.00
56807;BME280;42687;42.524;12.052;2022-08-20T03:32:59;96438.75;;;15.78;100.00
56807;BME280;42687;42.524;12.052;2022-08-20T03:35:26;96434.56;;;15.76;100.00
56807;BME280;42687;42.524;12.052;2022-08-20T03:37:51;96441.91;;;15.72;100.00
56807;BME280;42687;42.524;12.052;2022-08-20T03:40:20;96442.19;;;15.69;100.00
56807;BME280;42687;42.524;12.052;2022-08-20T03:42:46;96438.88;;;15.56;100.00
56807;BME280;42687;42.524;12.052;2022-08-20T03:45:12;96443.97;;;15.68;100.00
56807;BME280;42687;42.524;12.052;2022-08-20T03:47:38;96418.19;;;15.49;100.00
56807;BME280;42687;42.524;12.052;2022-08-20T03:50:05;96443.28;;;15.66;100.00
56807;BME280;42687;42.524;12.052;2022-08-20T03:52:31;96449.41;;;15.67;100.00
56807;BME280;42687;42.524;12.052;2022-08-20T03:54:56;96446.91;;;15.65;100.00
56807;BME280;42687;42.524;12.052;2022-08-20T03:57:22;96447.16;;;15.62;100.00
56807;BME280;42687;42.524;12.052;2022-08-20T03:59:48;96452.81;;;15.58;100.00
56807;BME280;42687;42.524;12.052;2022-08-20T04:02:13;96450.44;;;15.55;100.00
56807;BME280;42687;42.524;12.052;2022-08-20T04:04:39;96457.66;;;15.52;100.00
56807;BME280;42687;42.524;12.052;2022-08-20T04:07:13;96451.06;;;15.47;100.00
56807;BME280;42687;42.524;12.052;2022-08-20T04:09:40;96453.00;;;15.45;100.00
56807;BME280;42687;42.524;12.052;2022-08-20T04:12:05;96453.41;;;15.40;100.00
56807;BME280;42687;42.524;12.052;2022-08-20T04:14:33;96450.75;;;15.40;100.00
56807;BME280;42687;42.524;12.052;2022-08-20T04:17:06;96458.56;;;15.42;100.00
56807;BME280;42687;42.524;12.052;2022-08-20T04:19:32;96454.34;;;15.39;100.00
56807;BME280;42687;42.524;12.052;2022-08-20T04:21:59;96454.63;;;15.36;100.00
56807;BME280;42687;42.524;12.052;2022-08-20T04:24:25;96466.66;;;15.40;100.00
56807;BME280;42687;42.524;12.052;2022-08-20T04:26:51;96461.47;;;15.39;100.00
56807;BME280;42687;42.524;12.052;2022-08-20T04:29:17;96458.22;;;15.35;100.00
56807;BME280;42687;42.524;12.052;2022-08-20T04:31:43;96464.75;;;15.31;100.00
56807;BME280;42687;42.524;12.052;2022-08-20T04:34:09;96462.94;;;15.31;100.00
56807;BME280;42687;42.524;12.052;2022-08-20T04:36:34;96457.41;;;15.34;100.00
56807;BME280;42687;42.524;12.052;2022-08-20T04:39:00;96466.91;;;15.37;100.00
56807;BME280;42687;42.524;12.052;2022-08-20T04:41:26;96462.31;;;15.39;100.00
56807;BME280;42687;42.524;12.052;2022-08-20T04:43:52;96457.72;;;15.41;100.00
56807;BME280;42687;42.524;12.052;2022-08-20T04:46:18;96463.03;;;15.41;100.00
56807;BME280;42687;42.524;12.052;2022-08-20T04:48:43;96462.03;;;15.42;100.00
56807;BME280;42687;42.524;12.052;2022-08-20T04:51:09;96464.81;;;15.41;100.00
56807;BME280;42687;42.524;12.052;2022-08-20T04:53:39;96441.41;;;15.25;100.00
56807;BME280;42687;42.524;12.052;2022-08-20T04:56:05;96465.28;;;15.46;100.00
56807;BME280;42687;42.524;12.052;2022-08-20T04:58:35;96472.16;;;15.48;100.00
56807;BME280;42687;42.524;12.052;2022-08-20T05:01:05;96476.94;;;15.55;100.00
56807;BME280;42687;42.524;12.052;2022-08-20T05:03:31;96478.38;;;15.59;100.00
56807;BME280;42687;42.524;12.052;2022-08-20T05:05:57;96480.75;;;15.62;100.00
56807;BME280;42687;42.524;12.052;2022-08-20T05:08:23;96483.72;;;15.68;100.00
56807;BME280;42687;42.524;12.052;2022-08-20T05:10:50;96479.75;;;15.74;100.00
56807;BME280;42687;42.524;12.052;2022-08-20T05:13:16;96474.88;;;15.79;100.00
56807;BME280;42687;42.524;12.052;2022-08-20T05:15:42;96479.44;;;15.89;100.00
56807;BME280;42687;42.524;12.052;2022-08-20T05:18:14;96476.41;;;15.93;100.00
56807;BME280;42687;42.524;12.052;2022-08-20T05:20:41;96469.28;;;15.94;100.00
56807;BME280;42687;42.524;12.052;2022-08-20T05:23:07;96477.84;;;15.97;100.00
56807;BME280;42687;42.524;12.052;2022-08-20T05:25:33;96480.53;;;16.07;100.00
56807;BME280;42687;42.524;12.052;2022-08-20T05:28:00;96481.44;;;16.17;100.00
56807;BME280;42687;42.524;12.052;2022-08-20T05:30:27;96491.25;;;16.27;100.00
56807;BME280;42687;42.524;12.052;2022-08-20T05:33:01;96488.78;;;16.35;100.00
56807;BME280;42687;42.524;12.052;2022-08-20T05:35:28;96489.81;;;16.44;100.00
56807;BME280;42687;42.524;12.052;2022-08-20T05:37:54;96494.06;;;16.56;100.00
56807;BME280;42687;42.524;12.052;2022-08-20T05:40:20;96481.09;;;16.63;100.00
56807;BME280;42687;42.524;12.052;2022-08-20T05:42:47;96493.69;;;16.71;100.00
56807;BME280;42687;42.524;12.052;2022-08-20T05:45:12;96483.38;;;16.77;100.00
56807;BME280;42687;42.524;12.052;2022-08-20T05:47:41;96500.19;;;16.88;100.00
56807;BME280;42687;42.524;12.052;2022-08-20T05:50:07;96502.91;;;16.97;100.00
56807;BME280;42687;42.524;12.052;2022-08-20T05:52:33;96493.72;;;17.11;100.00
56807;BME280;42687;42.524;12.052;2022-08-20T05:54:58;96506.19;;;17.30;95.27
56807;BME280;42687;42.524;12.052;2022-08-20T05:57:24;96508.06;;;17.49;93.84
56807;BME280;42687;42.524;12.052;2022-08-20T05:59:49;96503.69;;;17.58;93.58
56807;BME280;42687;42.524;12.052;2022-08-20T06:02:15;96506.78;;;17.63;93.36
56807;BME280;42687;42.524;12.052;2022-08-20T06:04:58;96497.81;;;17.74;93.52
56807;BME280;42687;42.524;12.052;2022-08-20T06:07:24;96503.03;;;17.95;92.85
56807;BME280;42687;42.524;12.052;2022-08-20T06:09:50;96501.84;;;18.37;92.22
56807;BME280;42687;42.524;12.052;2022-08-20T06:12:15;96497.16;;;18.87;92.39
56807;BME280;42687;42.524;12.052;2022-08-20T06:14:42;96497.97;;;19.43;92.97
56807;BME280;42687;42.524;12.052;2022-08-20T06:17:09;96499.06;;;20.04;94.06
56807;BME280;42687;42.524;12.052;2022-08-20T06:19:35;96498.78;;;20.60;95.40
56807;BME280;42687;42.524;12.052;2022-08-20T06:22:02;96484.84;;;21.09;95.83
56807;BME280;42687;42.524;12.052;2022-08-20T06:24:28;96486.47;;;21.61;96.43
56807;BME280;42687;42.524;12.052;2022-08-20T06:26:54;96497.88;;;22.12;96.28
56807;BME280;42687;42.524;12.052;2022-08-20T06:29:20;96498.19;;;22.59;95.86
56807;BME280;42687;42.524;12.052;2022-08-20T06:31:46;96495.53;;;22.98;95.12
56807;BME280;42687;42.524;12.052;2022-08-20T06:34:11;96503.19;;;23.49;94.24
56807;BME280;42687;42.524;12.052;2022-08-20T06:36:37;96500.91;;;23.93;92.20
56807;BME280;42687;42.524;12.052;2022-08-20T06:39:02;96497.41;;;24.30;90.56
56807;BME280;42687;42.524;12.052;2022-08-20T06:41:28;96495.63;;;24.76;88.06
56807;BME280;42687;42.524;12.052;2022-08-20T06:43:53;96506.00;;;24.94;86.25
56807;BME280;42687;42.524;12.052;2022-08-20T06:46:19;96511.38;;;25.09;85.41
56807;BME280;42687;42.524;12.052;2022-08-20T06:48:47;96518.97;;;25.05;84.01
56807;BME280;42687;42.524;12.052;2022-08-20T06:51:13;96467.69;;;24.62;83.32
56807;BME280;42687;42.524;12.052;2022-08-20T06:53:38;96522.94;;;24.11;82.48
56807;BME280;42687;42.524;12.052;2022-08-20T06:56:04;96530.06;;;23.73;82.75
56807;BME280;42687;42.524;12.052;2022-08-20T06:58:30;96529.31;;;23.56;83.67
56807;BME280;42687;42.524;12.052;2022-08-20T07:00:56;96524.00;;;23.47;83.76
56807;BME280;42687;42.524;12.052;2022-08-20T07:03:22;96519.22;;;23.35;84.22
56807;BME280;42687;42.524;12.052;2022-08-20T07:05:47;96525.63;;;23.25;84.03
56807;BME280;42687;42.524;12.052;2022-08-20T07:08:15;96525.66;;;23.48;83.10
56807;BME280;42687;42.524;12.052;2022-08-20T07:10:43;96519.06;;;23.28;84.20
56807;BME280;42687;42.524;12.052;2022-08-20T07:13:09;96517.09;;;23.76;82.87
56807;BME280;42687;42.524;12.052;2022-08-20T07:15:36;96515.50;;;24.37;82.37
56807;BME280;42687;42.524;12.052;2022-08-20T07:18:02;96508.31;;;25.12;81.47
56807;BME280;42687;42.524;12.052;2022-08-20T07:20:30;96498.81;;;25.68;80.68
56807;BME280;42687;42.524;12.052;2022-08-20T07:22:56;96493.00;;;25.86;80.13
56807;BME280;42687;42.524;12.052;2022-08-20T07:25:21;96496.75;;;26.28;80.18
56807;BME280;42687;42.524;12.052;2022-08-20T07:27:47;96498.56;;;26.49;79.98
56807;BME280;42687;42.524;12.052;2022-08-20T07:30:15;96493.88;;;26.08;81.53
56807;BME280;42687;42.524;12.052;2022-08-20T07:32:59;96500.13;;;25.93;81.10
56807;BME280;42687;42.524;12.052;2022-08-20T07:35:24;96509.31;;;25.41;82.58
56807;BME280;42687;42.524;12.052;2022-08-20T07:37:51;96508.41;;;24.89;83.54
56807;BME280;42687;42.524;12.052;2022-08-20T07:40:23;96504.63;;;24.30;84.45
56807;BME280;42687;42.524;12.052;2022-08-20T07:42:51;96506.91;;;24.18;83.99
56807;BME280;42687;42.524;12.052;2022-08-20T07:45:17;96505.56;;;24.37;83.67
56807;BME280;42687;42.524;12.052;2022-08-20T07:47:43;96501.97;;;24.45;83.55
56807;BME280;42687;42.524;12.052;2022-08-20T07:50:10;96501.91;;;25.13;82.08
56807;BME280;42687;42.524;12.052;2022-08-20T07:52:35;96498.50;;;24.89;82.47
56807;BME280;42687;42.524;12.052;2022-08-20T07:55:05;96504.84;;;24.58;83.52
56807;BME280;42687;42.524;12.052;2022-08-20T07:57:31;96513.06;;;25.10;81.71
56807;BME280;42687;42.524;12.052;2022-08-20T07:59:56;96504.94;;;25.98;79.99
56807;BME280;42687;42.524;12.052;2022-08-20T08:02:23;96499.84;;;26.25;80.58
56807;BME280;42687;42.524;12.052;2022-08-20T08:04:49;96517.97;;;25.94;80.97
56807;BME280;42687;42.524;12.052;2022-08-20T08:07:14;96509.03;;;26.37;79.28
56807;BME280;42687;42.524;12.052;2022-08-20T08:09:40;96518.66;;;27.03;78.21
56807;BME280;42687;42.524;12.052;2022-08-20T08:12:08;96490.44;;;27.61;77.17
56807;BME280;42687;42.524;12.052;2022-08-20T08:14:36;96520.50;;;28.53;75.57
56807;BME280;42687;42.524;12.052;2022-08-20T08:17:02;96519.66;;;28.33;76.50
56807;BME280;42687;42.524;12.052;2022-08-20T08:19:29;96529.19;;;27.95;76.58
56807;BME280;42687;42.524;12.052;2022-08-20T08:22:00;96526.13;;;27.43;76.88
56807;BME280;42687;42.524;12.052;2022-08-20T08:24:26;96514.44;;;26.66;79.01
56807;BME280;42687;42.524;12.052;2022-08-20T08:26:51;96521.75;;;26.00;80.02
56807;BME280;42687;42.524;12.052;2022-08-20T08:29:17;96516.88;;;25.89;78.62
56807;BME280;42687;42.524;12.052;2022-08-20T08:31:42;96515.44;;;25.71;79.32
56807;BME280;42687;42.524;12.052;2022-08-20T08:34:08;96524.50;;;26.28;77.00
56807;BME280;42687;42.524;12.052;2022-08-20T08:36:34;96523.91;;;26.55;77.25
56807;BME280;42687;42.524;12.052;2022-08-20T08:38:59;96526.00;;;26.09;77.73
56807;BME280;42687;42.524;12.052;2022-08-20T08:41:29;96521.09;;;25.55;78.43
56807;BME280;42687;42.524;12.052;2022-08-20T08:44:18;96514.88;;;25.39;77.80
56807;BME280;42687;42.524;12.052;2022-08-20T08:46:47;96527.22;;;26.28;75.73
56807;BME280;42687;42.524;12.052;2022-08-20T08:49:15;96527.84;;;27.16;74.14
56807;BME280;42687;42.524;12.052;2022-08-20T08:51:49;96531.31;;;27.09;74.48
56807;BME280;42687;42.524;12.052;2022-08-20T08:54:18;96530.88;;;27.41;72.57
56807;BME280;42687;42.524;12.052;2022-08-20T08:56:44;96534.16;;;27.91;71.63
56807;BME280;42687;42.524;12.052;2022-08-20T08:59:09;96541.94;;;27.53;73.09
56807;BME280;42687;42.524;12.052;2022-08-20T09:01:40;96531.22;;;26.89;74.15
56807;BME280;42687;42.524;12.052;2022-08-20T09:04:07;96537.31;;;26.48;74.02
56807;BME280;42687;42.524;12.052;2022-08-20T09:06:33;96542.25;;;26.44;73.48
56807;BME280;42687;42.524;12.052;2022-08-20T09:08:59;96545.53;;;26.11;74.55
56807;BME280;42687;42.524;12.052;2022-08-20T09:11:27;96544.13;;;25.79;75.34
56807;BME280;42687;42.524;12.052;2022-08-20T09:13:53;96552.19;;;26.16;74.21
56807;BME280;42687;42.524;12.052;2022-08-20T09:16:19;96548.63;;;25.93;74.33
56807;BME280;42687;42.524;12.052;2022-08-20T09:18:46;96552.41;;;25.99;73.85
56807;BME280;42687;42.524;12.052;2022-08-20T09:21:12;96552.19;;;26.16;73.12
56807;BME280;42687;42.524;12.052;2022-08-20T09:23:38;96548.16;;;27.11;70.87
56807;BME280;42687;42.524;12.052;2022-08-20T09:26:04;96538.81;;;27.56;70.47
56807;BME280;42687;42.524;12.052;2022-08-20T09:28:30;96546.72;;;28.33;68.57
56807;BME280;42687;42.524;12.052;2022-08-20T09:30:55;96552.66;;;29.22;66.94
56807;BME280;42687;42.524;12.052;2022-08-20T09:33:21;96501.63;;;29.25;66.14
56807;BME280;42687;42.524;12.052;2022-08-20T09:35:46;96563.34;;;28.90;67.04
56807;BME280;42687;42.524;12.052;2022-08-20T09:38:12;96564.13;;;28.03;69.30
56807;BME280;42687;42.524;12.052;2022-08-20T09:40:38;96560.22;;;27.16;70.81
56807;BME280;42687;42.524;12.052;2022-08-20T09:43:04;96560.38;;;26.51;72.30
56807;BME280;42687;42.524;12.052;2022-08-20T09:45:30;96556.50;;;27.17;70.16
56807;BME280;42687;42.524;12.052;2022-08-20T09:47:56;96561.81;;;28.00;68.00
56807;BME280;42687;42.524;12.052;2022-08-20T09:50:21;96533.41;;;28.78;66.54
56807;BME280;42687;42.524;12.052;2022-08-20T09:52:47;96549.75;;;29.37;65.31
56807;BME280;42687;42.524;12.052;2022-08-20T09:57:43;96552.31;;;28.24;67.26
56807;BME280;42687;42.524;12.052;2022-08-20T10:00:08;96531.72;;;28.23;66.70
56807;BME280;42687;42.524;12.052;2022-08-20T10:02:36;96546.31;;;28.69;65.99
56807;BME280;42687;42.524;12.052;2022-08-20T10:05:02;96552.06;;;29.20;65.16
56807;BME280;42687;42.524;12.052;2022-08-20T10:07:28;96550.03;;;29.67;63.21
56807;BME280;42687;42.524;12.052;2022-08-20T10:09:53;96549.22;;;30.05;61.57
56807;BME280;42687;42.524;12.052;2022-08-20T10:12:19;96546.16;;;30.27;62.18
56807;BME280;42687;42.524;12.052;2022-08-20T10:14:44;96550.44;;;30.41;62.66
56807;BME280;42687;42.524;12.052;2022-08-20T10:17:10;96548.94;;;30.52;62.39
56807;BME280;42687;42.524;12.052;2022-08-20T10:19:36;96552.22;;;30.80;61.61
56807;BME280;42687;42.524;12.052;2022-08-20T10:22:01;96505.63;;;30.64;61.00
56807;BME280;42687;42.524;12.052;2022-08-20T10:24:27;96549.53;;;30.98;60.64
56807;BME280;42687;42.524;12.052;2022-08-20T10:26:56;96548.06;;;30.77;60.86
56807;BME280;42687;42.524;12.052;2022-08-20T10:29:23;96546.94;;;30.85;60.76
56807;BME280;42687;42.524;12.052;2022-08-20T10:31:48;96542.50;;;30.72;60.96
56807;BME280;42687;42.524;12.052;2022-08-20T10:34:14;96540.56;;;30.54;61.33
56807;BME280;42687;42.524;12.052;2022-08-20T10:36:40;96543.38;;;30.66;60.65
56807;BME280;42687;42.524;12.052;2022-08-20T10:39:06;96526.19;;;30.53;60.54
56807;BME280;42687;42.524;12.052;2022-08-20T10:41:31;96533.69;;;30.76;60.17
56807;BME280;42687;42.524;12.052;2022-08-20T10:43:56;96535.59;;;30.94;59.62
56807;BME280;42687;42.524;12.052;2022-08-20T10:46:22;96541.16;;;31.06;59.37
56807;BME280;42687;42.524;12.052;2022-08-20T10:48:47;96535.22;;;30.91;59.35
56807;BME280;42687;42.524;12.052;2022-08-20T10:51:13;96537.91;;;30.91;59.10
56807;BME280;42687;42.524;12.052;2022-08-20T10:53:38;96525.75;;;30.75;58.20
56807;BME280;42687;42.524;12.052;2022-08-20T10:56:04;96531.00;;;30.44;59.80
56807;BME280;42687;42.524;12.052;2022-08-20T10:58:29;96531.66;;;30.40;59.18
56807;BME280;42687;42.524;12.052;2022-08-20T11:00:55;96526.31;;;30.58;58.57
56807;BME280;42687;42.524;12.052;2022-08-20T11:03:20;96522.53;;;30.85;57.75
56807;BME280;42687;42.524;12.052;2022-08-20T11:05:46;96521.34;;;30.99;56.87
56807;BME280;42687;42.524;12.052;2022-08-20T11:08:11;96516.63;;;31.13;53.37
56807;BME280;42687;42.524;12.052;2022-08-20T11:10:37;96525.44;;;31.27;56.63
56807;BME280;42687;42.524;12.052;2022-08-20T11:13:04;96518.16;;;31.27;55.84
56807;BME280;42687;42.524;12.052;2022-08-20T11:15:31;96519.25;;;31.38;55.59
56807;BME280;42687;42.524;12.052;2022-08-20T11:17:56;96515.78;;;31.31;55.67
56807;BME280;42687;42.524;12.052;2022-08-20T11:20:23;96516.09;;;31.41;55.81
56807;BME280;42687;42.524;12.052;2022-08-20T11:22:50;96508.41;;;31.38;53.52
56807;BME280;42687;42.524;12.052;2022-08-20T11:25:16;96516.41;;;31.33;55.40
56807;BME280;42687;42.524;12.052;2022-08-20T11:27:43;96511.94;;;31.39;54.07
56807;BME280;42687;42.524;12.052;2022-08-20T11:30:10;96509.97;;;31.46;53.94
56807;BME280;42687;42.524;12.052;2022-08-20T11:32:36;96520.31;;;31.37;54.56
56807;BME280;42687;42.524;12.052;2022-08-20T11:35:01;96515.88;;;31.24;54.52
56807;BME280;42687;42.524;12.052;2022-08-20T11:37:27;96510.59;;;31.11;54.29
56807;BME280;42687;42.524;12.052;2022-08-20T11:39:52;96505.06;;;31.18;53.84
56807;BME280;42687;42.524;12.052;2022-08-20T11:42:18;96519.69;;;31.35;53.54
56807;BME280;42687;42.524;12.052;2022-08-20T11:44:43;96508.84;;;31.35;52.73
56807;BME280;42687;42.524;12.052;2022-08-20T11:47:09;96511.28;;;31.25;53.39
56807;BME280;42687;42.524;12.052;2022-08-20T11:49:43;96508.72;;;31.12;53.20
56807;BME280;42687;42.524;12.052;2022-08-20T11:52:09;96504.94;;;31.13;51.96
56807;BME280;42687;42.524;12.052;2022-08-20T11:54:34;96513.31;;;31.11;53.32
56807;BME280;42687;42.524;12.052;2022-08-20T11:57:04;96501.78;;;31.16;52.54
56807;BME280;42687;42.524;12.052;2022-08-20T11:59:30;96511.34;;;31.18;52.71
56807;BME280;42687;42.524;12.052;2022-08-20T12:01:55;96505.38;;;31.09;52.99
56807;BME280;42687;42.524;12.052;2022-08-20T12:04:22;96501.00;;;31.08;53.10
56807;BME280;42687;42.524;12.052;2022-08-20T12:06:48;96507.34;;;31.21;52.44
56807;BME280;42687;42.524;12.052;2022-08-20T12:09:14;96509.44;;;31.37;52.24
56807;BME280;42687;42.524;12.052;2022-08-20T12:11:39;96502.88;;;31.45;50.89
56807;BME280;42687;42.524;12.052;2022-08-20T12:14:05;96508.22;;;31.52;51.98
56807;BME280;42687;42.524;12.052;2022-08-20T12:16:30;96512.13;;;31.56;51.02
56807;BME280;42687;42.524;12.052;2022-08-20T12:18:56;96507.28;;;31.76;51.16
56807;BME280;42687;42.524;12.052;2022-08-20T12:21:21;96502.34;;;31.85;51.25
56807;BME280;42687;42.524;12.052;2022-08-20T12:23:46;96508.25;;;32.13;50.76
56807;BME280;42687;42.524;12.052;2022-08-20T12:26:12;96487.81;;;31.80;50.69
56807;BME280;42687;42.524;12.052;2022-08-20T12:28:38;96506.91;;;32.03;50.76
56807;BME280;42687;42.524;12.052;2022-08-20T12:31:03;96502.06;;;32.05;51.15
56807;BME280;42687;42.524;12.052;2022-08-20T12:33:29;96505.84;;;32.04;51.18
56807;BME280;42687;42.524;12.052;2022-08-20T12:35:55;96495.53;;;31.94;50.65
56807;BME280;42687;42.524;12.052;2022-08-20T12:38:21;96497.44;;;31.94;51.10
56807;BME280;42687;42.524;12.052;2022-08-20T12:40:46;96496.19;;;31.78;51.09
56807;BME280;42687;42.524;12.052;2022-08-20T12:43:12;96496.50;;;31.70;51.62
56807;BME280;42687;42.524;12.052;2022-08-20T12:45:37;96497.59;;;31.69;51.48
56807;BME280;42687;42.524;12.052;2022-08-20T12:48:10;96448.53;;;31.45;50.97
56807;BME280;42687;42.524;12.052;2022-08-20T12:50:37;96464.38;;;31.48;51.24
56807;BME280;42687;42.524;12.052;2022-08-20T12:53:03;96493.94;;;31.56;51.08
56807;BME280;42687;42.524;12.052;2022-08-20T12:55:29;96485.13;;;31.61;50.86